createdAt,value
2023-04-11T00:01:55.239Z,85.03
2023-04-11T00:04:25.639Z,85.80
2023-04-11T00:06:53.132Z,86.78
2023-04-11T00:09:20.670Z,86.78
2023-04-11T00:11:48.321Z,86.78
2023-04-11T00:14:15.555Z,87.63
2023-04-11T00:16:42.685Z,87.07
2023-04-11T00:19:10.716Z,86.03
2023-04-11T00:21:40.622Z,85.72
2023-04-11T00:24:08.717Z,85.23
2023-04-11T00:26:36.127Z,85.75
2023-04-11T00:29:02.943Z,85.40
2023-04-11T00:31:30.226Z,85.00
2023-04-11T00:33:57.816Z,84.33
2023-04-11T00:36:25.307Z,83.29
2023-04-11T00:38:54.694Z,82.40
2023-04-11T00:41:22.497Z,81.43
2023-04-11T00:43:49.434Z,80.46
2023-04-11T00:46:18.953Z,79.63
2023-04-11T00:48:46.500Z,79.25
2023-04-11T00:51:14.609Z,78.23
2023-04-11T00:53:44.215Z,77.17
2023-04-11T00:56:13.828Z,77.58
2023-04-11T00:58:41.810Z,78.72
2023-04-11T01:01:09.188Z,79.66
2023-04-11T01:03:37.796Z,78.76
2023-04-11T01:06:06.836Z,79.04
2023-04-11T01:08:34.980Z,80.04
2023-04-11T01:11:03.281Z,81.24
2023-04-11T01:13:32.975Z,83.59
2023-04-11T01:16:01.404Z,83.91
2023-04-11T01:18:28.870Z,82.42
2023-04-11T01:20:56.501Z,83.34
2023-04-11T01:23:25.916Z,84.02
2023-04-11T01:25:53.354Z,84.33
2023-04-11T01:28:21.366Z,84.01
2023-04-11T01:30:49.079Z,83.65
2023-04-11T01:33:17.275Z,83.37
2023-04-11T01:35:44.832Z,82.84
2023-04-11T01:38:12.264Z,82.58
2023-04-11T01:40:42.407Z,83.09
2023-04-11T01:43:10.047Z,85.09
2023-04-11T01:45:37.816Z,84.22
2023-04-11T01:48:06.748Z,82.10
2023-04-11T01:50:34.812Z,81.57
2023-04-11T01:53:02.237Z,82.31
2023-04-11T01:55:29.024Z,82.93
2023-04-11T01:57:57.842Z,84.03
2023-04-11T02:00:24.764Z,83.70
2023-04-11T02:02:52.188Z,82.98
2023-04-11T02:05:19.998Z,83.57
2023-04-11T02:07:47.564Z,83.21
2023-04-11T02:10:14.975Z,82.74
2023-04-11T02:12:42.395Z,82.52
2023-04-11T02:15:12.882Z,82.36
2023-04-11T02:17:40.319Z,82.23
2023-04-11T02:20:10.484Z,81.27
2023-04-11T02:22:38.176Z,80.58
2023-04-11T02:25:06.834Z,81.10
2023-04-11T02:27:35.533Z,80.26
2023-04-11T02:30:02.858Z,78.95
2023-04-11T02:32:33.285Z,79.02
2023-04-11T02:35:01.257Z,79.09
2023-04-11T02:37:29.217Z,79.44
2023-04-11T02:39:58.967Z,79.96
2023-04-11T02:42:26.176Z,79.26
2023-04-11T02:44:54.974Z,79.26
2023-04-11T02:47:22.452Z,79.23
2023-04-11T02:49:51.065Z,78.32
2023-04-11T02:52:18.940Z,80.12
2023-04-11T02:54:46.558Z,81.10
2023-04-11T02:57:13.841Z,81.85
2023-04-11T02:59:41.405Z,82.56
2023-04-11T03:02:08.672Z,80.81
2023-04-11T03:04:36.604Z,80.63
2023-04-11T03:07:05.472Z,80.62
2023-04-11T03:09:33.051Z,82.17
2023-04-11T03:12:00.521Z,82.98
2023-04-11T03:14:27.767Z,83.83
2023-04-11T03:16:54.987Z,82.99
2023-04-11T03:19:22.680Z,84.40
2023-04-11T03:21:50.185Z,84.64
2023-04-11T03:24:19.199Z,84.15
2023-04-11T03:26:46.615Z,85.26
2023-04-11T03:29:14.005Z,85.58
2023-04-11T03:31:41.351Z,85.13
2023-04-11T03:34:08.712Z,82.59
2023-04-11T03:36:36.040Z,84.20
2023-04-11T03:39:04.100Z,83.10
2023-04-11T03:41:33.374Z,83.55
2023-04-11T03:44:01.842Z,83.92
2023-04-11T03:46:30.888Z,83.58
2023-04-11T03:48:57.966Z,81.37
2023-04-11T03:51:25.966Z,81.64
2023-04-11T03:53:53.252Z,80.76
2023-04-11T03:56:20.698Z,80.02
2023-04-11T03:58:49.551Z,80.11
2023-04-11T04:01:17.949Z,80.43
2023-04-11T04:03:45.932Z,79.95
2023-04-11T04:06:13.655Z,79.27
2023-04-11T04:08:40.971Z,79.74
2023-04-11T04:11:08.372Z,80.76
2023-04-11T04:13:35.767Z,80.69
2023-04-11T04:16:05.311Z,80.03
2023-04-11T04:18:32.697Z,80.54
2023-04-11T04:21:00.453Z,80.16
2023-04-11T04:23:27.122Z,79.18
2023-04-11T04:25:54.064Z,79.73
2023-04-11T04:28:21.545Z,79.64
2023-04-11T04:30:50.036Z,79.59
2023-04-11T04:33:19.074Z,78.63
2023-04-11T04:35:46.295Z,79.41
2023-04-11T04:38:13.864Z,79.17
2023-04-11T04:40:41.193Z,79.46
2023-04-11T04:43:08.442Z,78.96
2023-04-11T04:45:35.950Z,79.40
2023-04-11T04:48:03.798Z,79.80
2023-04-11T04:50:32.531Z,79.14
2023-04-11T04:53:00.212Z,80.23
2023-04-11T04:55:27.454Z,80.18
2023-04-11T04:57:55.165Z,79.71
2023-04-11T05:00:23.337Z,79.29
2023-04-11T05:02:51.135Z,79.32
2023-04-11T05:05:18.373Z,78.81
2023-04-11T05:07:48.635Z,78.37
2023-04-11T05:10:16.830Z,77.76
2023-04-11T05:12:44.033Z,78.66
2023-04-11T05:15:12.308Z,78.63
2023-04-11T05:17:39.910Z,78.60
2023-04-11T05:20:08.374Z,79.09
2023-04-11T05:22:35.870Z,78.41
2023-04-11T05:25:06.025Z,78.44
2023-04-11T05:27:33.560Z,79.21
2023-04-11T05:30:00.678Z,78.27
2023-04-11T05:32:28.368Z,77.82
2023-04-11T05:34:59.023Z,77.21
2023-04-11T05:37:26.711Z,77.36
2023-04-11T05:39:54.229Z,77.78
2023-04-11T05:42:22.888Z,77.74
2023-04-11T05:44:50.459Z,78.27
2023-04-11T05:47:17.813Z,77.32
2023-04-11T05:49:45.406Z,77.17
2023-04-11T05:52:14.261Z,77.32
2023-04-11T05:54:41.642Z,76.92
2023-04-11T05:57:08.552Z,76.17
2023-04-11T05:59:37.514Z,76.09
2023-04-11T06:02:04.642Z,75.35
2023-04-11T06:04:33.008Z,74.60
2023-04-11T06:07:00.440Z,74.35
2023-04-11T06:09:28.238Z,74.02
2023-04-11T06:11:55.633Z,73.53
2023-04-11T06:14:23.531Z,73.18
2023-04-11T06:16:53.260Z,72.36
2023-04-11T06:19:23.291Z,71.86
2023-04-11T06:21:50.604Z,71.25
2023-04-11T06:24:18.780Z,71.32
2023-04-11T06:26:45.980Z,71.45
2023-04-11T06:29:13.429Z,71.08
2023-04-11T06:31:41.109Z,70.17
2023-04-11T06:34:11.876Z,68.64
2023-04-11T06:36:39.104Z,67.92
2023-04-11T06:39:07.557Z,67.00
2023-04-11T06:41:35.455Z,66.73
2023-04-11T06:44:02.797Z,65.70
2023-04-11T06:46:29.662Z,63.51
2023-04-11T06:48:56.540Z,62.70
2023-04-11T06:51:24.731Z,59.27
2023-04-11T06:53:52.595Z,59.32
2023-04-11T06:56:19.388Z,58.45
2023-04-11T06:58:47.040Z,57.63
2023-04-11T07:01:14.075Z,54.69
2023-04-11T07:03:41.929Z,52.21
2023-04-11T07:06:09.818Z,52.14
2023-04-11T07:08:38.477Z,53.36
2023-04-11T07:11:06.372Z,52.81
2023-04-11T07:13:33.325Z,53.26
2023-04-11T07:16:00.180Z,53.48
2023-04-11T07:18:27.630Z,52.32
2023-04-11T07:20:55.261Z,52.64
2023-04-11T07:23:24.003Z,52.29
2023-04-11T07:25:53.094Z,51.36
2023-04-11T07:28:20.902Z,51.44
2023-04-11T07:30:48.122Z,51.32
2023-04-11T07:33:15.186Z,49.78
2023-04-11T07:35:42.016Z,49.91
2023-04-11T07:38:08.705Z,49.71
2023-04-11T07:40:36.160Z,49.18
2023-04-11T07:43:05.000Z,48.03
2023-04-11T07:45:32.203Z,46.79
2023-04-11T07:48:00.337Z,48.11
2023-04-11T07:50:27.323Z,47.63
2023-04-11T07:52:54.460Z,49.39
2023-04-11T07:55:21.878Z,47.04
2023-04-11T07:57:50.050Z,48.36
2023-04-11T08:00:22.996Z,46.00
2023-04-11T08:02:50.167Z,45.52
2023-04-11T08:05:19.221Z,46.84
2023-04-11T08:07:47.021Z,48.51
2023-04-11T08:10:14.634Z,45.47
2023-04-11T08:12:41.475Z,44.66
2023-04-11T08:15:09.519Z,45.13
2023-04-11T08:17:38.621Z,46.80
2023-04-11T08:20:06.818Z,48.12
2023-04-11T08:22:34.602Z,46.60
2023-04-11T08:25:01.946Z,46.07
2023-04-11T08:27:29.713Z,47.64
2023-04-11T08:29:58.851Z,46.14
2023-04-11T08:32:27.490Z,45.71
2023-04-11T08:34:57.545Z,43.80
2023-04-11T08:37:25.496Z,43.29
2023-04-11T08:39:52.380Z,44.38
2023-04-11T08:42:24.073Z,43.16
2023-04-11T08:44:53.547Z,43.09
2023-04-11T08:47:21.262Z,43.36
2023-04-11T08:49:48.459Z,43.10
2023-04-11T08:52:19.369Z,43.22
2023-04-11T08:54:47.332Z,45.32
2023-04-11T08:57:24.695Z,45.69
2023-04-11T08:59:52.404Z,45.64
2023-04-11T09:02:20.475Z,43.11
2023-04-11T09:04:48.316Z,42.99
2023-04-11T09:07:17.912Z,43.13
2023-04-11T09:09:45.438Z,45.86
2023-04-11T09:12:14.324Z,43.43
2023-04-11T09:14:42.301Z,44.36
2023-04-11T09:17:09.786Z,43.33
2023-04-11T09:19:36.849Z,41.94
2023-04-11T09:22:04.821Z,40.44
2023-04-11T09:24:35.559Z,41.41
2023-04-11T09:27:07.331Z,41.74
2023-04-11T09:29:40.435Z,41.87
2023-04-11T09:32:08.692Z,41.76
2023-04-11T09:34:41.216Z,41.85
2023-04-11T09:37:09.466Z,42.56
2023-04-11T09:39:38.620Z,42.73
2023-04-11T09:42:23.952Z,42.05
2023-04-11T09:44:51.298Z,41.90
2023-04-11T09:47:21.164Z,42.13
2023-04-11T09:49:48.882Z,44.15
2023-04-11T09:52:18.923Z,42.70
2023-04-11T09:54:49.474Z,42.88
2023-04-11T09:57:18.129Z,42.23
2023-04-11T09:59:47.339Z,43.27
2023-04-11T10:02:16.466Z,43.45
2023-04-11T10:04:43.475Z,42.54
2023-04-11T10:07:15.751Z,43.23
2023-04-11T10:09:45.283Z,44.28
2023-04-11T10:12:30.652Z,45.80
2023-04-11T10:15:06.137Z,45.93
2023-04-11T10:17:37.379Z,44.79
2023-04-11T10:20:41.796Z,46.26
2023-04-11T10:23:09.035Z,43.32
2023-04-11T10:25:52.545Z,42.70
2023-04-11T10:28:38.770Z,42.99
2023-04-11T10:31:08.693Z,43.29
2023-04-11T10:33:37.051Z,43.76
2023-04-11T10:36:06.822Z,44.20
2023-04-11T10:38:50.362Z,44.37
2023-04-11T10:41:20.406Z,45.02
2023-04-11T10:43:50.360Z,46.15
2023-04-11T10:46:19.677Z,47.38
2023-04-11T10:49:01.331Z,46.96
2023-04-11T10:51:30.817Z,47.09
2023-04-11T10:53:58.060Z,45.42
2023-04-11T10:56:56.589Z,45.02
2023-04-11T11:02:40.636Z,46.81
2023-04-11T11:05:19.443Z,47.31
2023-04-11T11:07:51.469Z,48.53
2023-04-11T11:10:42.945Z,50.14
2023-04-11T11:13:10.606Z,50.30
2023-04-11T11:15:38.682Z,49.26
2023-04-11T11:18:15.753Z,49.67
2023-04-11T11:20:43.247Z,48.84
2023-04-11T11:23:12.305Z,48.65
2023-04-11T11:25:40.072Z,46.77
2023-04-11T11:28:08.715Z,46.88
2023-04-11T11:30:37.301Z,45.33
2023-04-11T11:33:20.596Z,44.27
2023-04-11T11:36:02.636Z,45.21
2023-04-11T11:38:31.234Z,44.82
2023-04-11T11:41:00.527Z,44.48
2023-04-11T11:43:28.488Z,44.31
2023-04-11T11:46:18.310Z,43.31
2023-04-11T11:49:00.865Z,43.01
2023-04-11T11:51:39.778Z,43.11
2023-04-11T11:54:08.415Z,43.18
2023-04-11T11:56:36.066Z,41.43
2023-04-11T11:59:03.087Z,41.74
2023-04-11T12:01:30.561Z,41.96
2023-04-11T12:04:00.508Z,42.15
2023-04-11T12:06:29.741Z,41.68
2023-04-11T12:09:02.072Z,42.54
2023-04-11T12:11:37.305Z,42.33
2023-04-11T12:14:06.383Z,42.44
2023-04-11T12:16:34.298Z,43.02
2023-04-11T12:19:06.215Z,42.38
2023-04-11T12:21:34.143Z,42.50
2023-04-11T12:24:01.581Z,42.01
2023-04-11T12:26:29.473Z,42.67
2023-04-11T12:28:56.765Z,42.26
2023-04-11T12:31:24.715Z,41.75
2023-04-11T12:33:52.303Z,42.39
2023-04-11T12:36:21.694Z,42.04
2023-04-11T12:38:49.480Z,42.17
2023-04-11T12:41:31.658Z,42.85
2023-04-11T12:43:59.239Z,43.14
2023-04-11T12:46:26.994Z,45.55
2023-04-11T12:48:58.233Z,45.32
2023-04-11T12:51:27.474Z,45.83
2023-04-11T12:53:54.943Z,44.51
2023-04-11T12:56:22.902Z,43.97
2023-04-11T12:58:51.101Z,44.51
2023-04-11T13:01:17.907Z,44.00
2023-04-11T13:03:47.191Z,43.71
2023-04-11T13:06:14.485Z,45.83
2023-04-11T13:08:44.217Z,47.94
2023-04-11T13:11:11.495Z,48.43
2023-04-11T13:13:39.093Z,49.14
2023-04-11T13:16:06.905Z,50.14
2023-04-11T13:18:34.863Z,51.33
2023-04-11T13:21:03.316Z,50.36
2023-04-11T13:23:30.741Z,49.85
2023-04-11T13:26:01.132Z,50.58
2023-04-11T13:28:28.998Z,50.69
2023-04-11T13:30:56.684Z,51.60
2023-04-11T13:33:24.384Z,53.04
2023-04-11T13:35:51.888Z,53.45
2023-04-11T13:38:19.536Z,55.10
2023-04-11T13:40:46.598Z,58.99
2023-04-11T13:43:15.547Z,66.31
2023-04-11T13:45:43.037Z,77.39
2023-04-11T13:48:12.084Z,85.31
2023-04-11T13:50:39.595Z,89.92
2023-04-11T13:53:07.599Z,94.09
2023-04-11T13:55:34.995Z,94.18
2023-04-11T13:58:03.603Z,94.19
2023-04-11T14:00:32.704Z,93.33
2023-04-11T14:03:00.552Z,91.56
2023-04-11T14:05:27.715Z,91.58
2023-04-11T14:07:54.480Z,90.79
2023-04-11T14:10:21.496Z,88.32
2023-04-11T14:12:48.908Z,91.26
2023-04-11T14:15:15.744Z,89.92
2023-04-11T14:17:44.614Z,90.37
2023-04-11T14:20:11.555Z,88.73
2023-04-11T14:22:38.283Z,90.66
2023-04-11T14:25:07.363Z,92.00
2023-04-11T14:27:34.347Z,92.96
2023-04-11T14:30:01.029Z,93.60
2023-04-11T14:32:27.838Z,94.98
2023-04-11T14:34:56.676Z,97.05
2023-04-11T14:37:23.809Z,96.87
2023-04-11T14:39:50.906Z,96.20
2023-04-11T14:42:17.697Z,95.53
2023-04-11T14:44:44.691Z,94.28
2023-04-11T14:47:11.837Z,95.63
2023-04-11T14:49:38.831Z,94.55
2023-04-11T14:52:07.460Z,94.32
2023-04-11T14:54:34.154Z,94.77
2023-04-11T14:57:01.137Z,95.76
2023-04-11T14:59:28.248Z,97.57
2023-04-11T15:01:57.970Z,98.91
2023-04-11T15:04:25.256Z,100.00
2023-04-11T15:06:51.933Z,99.97
2023-04-11T15:09:20.291Z,99.62
2023-04-11T15:11:47.400Z,100.00
2023-04-11T15:14:14.719Z,99.70
2023-04-11T15:16:41.747Z,100.00
2023-04-11T15:19:09.072Z,100.00
2023-04-11T15:21:36.395Z,100.00
2023-04-11T15:24:03.117Z,100.00
2023-04-11T15:26:31.508Z,100.00
2023-04-11T15:28:58.586Z,100.00
2023-04-11T15:31:26.879Z,100.00
2023-04-11T15:33:55.752Z,100.00
2023-04-11T15:36:24.160Z,100.00
2023-04-11T15:38:51.197Z,100.00
2023-04-11T15:41:17.998Z,100.00
2023-04-11T15:43:46.332Z,100.00
2023-04-11T15:46:13.144Z,100.00
2023-04-11T15:48:39.801Z,100.00
2023-04-11T15:51:10.437Z,100.00
2023-04-11T15:53:37.301Z,100.00
2023-04-11T15:56:05.118Z,100.00
2023-04-11T15:58:32.030Z,100.00
2023-04-11T16:01:01.883Z,100.00
2023-04-11T16:03:29.123Z,100.00
2023-04-11T16:05:56.262Z,100.00
2023-04-11T16:08:23.316Z,100.00
2023-04-11T16:10:50.121Z,100.00
2023-04-11T16:13:16.888Z,100.00
2023-04-11T16:15:43.666Z,100.00
2023-04-11T16:18:12.156Z,100.00
2023-04-11T16:20:39.236Z,100.00
2023-04-11T16:23:06.228Z,100.00
2023-04-11T16:25:33.025Z,100.00
2023-04-11T16:28:00.338Z,100.00
2023-04-11T16:30:27.103Z,100.00
2023-04-11T16:32:54.290Z,100.00
2023-04-11T16:35:22.587Z,100.00
2023-04-11T16:37:49.430Z,100.00
2023-04-11T16:40:16.291Z,100.00
2023-04-11T16:42:42.980Z,100.00
2023-04-11T16:45:10.855Z,100.00
2023-04-11T16:47:38.428Z,100.00
2023-04-11T16:50:06.192Z,100.00
2023-04-11T16:52:34.257Z,100.00
2023-04-11T16:55:01.015Z,100.00
2023-04-11T16:57:27.700Z,100.00
2023-04-11T16:59:54.492Z,100.00
2023-04-11T17:02:21.549Z,100.00
2023-04-11T17:04:48.284Z,100.00
2023-04-11T17:07:15.071Z,100.00
2023-04-11T17:09:46.300Z,100.00
2023-04-11T17:12:13.538Z,100.00
2023-04-11T17:14:40.317Z,100.00
2023-04-11T17:17:07.150Z,100.00
2023-04-11T17:19:33.878Z,100.00
2023-04-11T17:22:00.601Z,100.00
2023-04-11T17:24:27.234Z,100.00
2023-04-11T17:26:55.572Z,100.00
2023-04-11T17:29:22.370Z,100.00
2023-04-11T17:31:49.168Z,100.00
2023-04-11T17:34:16.255Z,100.00
2023-04-11T17:36:43.154Z,100.00
2023-04-11T17:39:10.280Z,100.00
2023-04-11T17:41:37.367Z,100.00
2023-04-11T17:44:05.776Z,100.00
2023-04-11T17:46:33.057Z,100.00
2023-04-11T17:48:59.929Z,100.00
2023-04-11T17:51:27.578Z,100.00
2023-04-11T17:53:55.680Z,100.00
2023-04-11T17:56:23.193Z,100.00
2023-04-11T17:58:50.213Z,100.00
2023-04-11T18:01:18.517Z,100.00
2023-04-11T18:03:45.638Z,100.00
2023-04-11T18:06:12.412Z,100.00
2023-04-11T18:11:10.198Z,100.00
2023-04-11T18:13:37.207Z,100.00
2023-04-11T18:16:04.497Z,100.00
2023-04-11T18:18:33.097Z,100.00
2023-04-11T18:21:04.940Z,100.00
2023-04-11T18:23:43.879Z,100.00
2023-04-11T18:26:13.915Z,100.00
2023-04-11T18:28:40.921Z,100.00
2023-04-11T18:31:07.750Z,100.00
2023-04-11T18:33:38.011Z,100.00
2023-04-11T18:36:06.258Z,100.00
2023-04-11T18:38:33.317Z,100.00
2023-04-11T18:41:07.677Z,100.00
2023-04-11T18:43:35.245Z,100.00
2023-04-11T18:46:03.556Z,100.00
2023-04-11T18:48:30.400Z,100.00
2023-04-11T18:51:00.221Z,100.00
2023-04-11T18:53:26.998Z,100.00
2023-04-11T18:55:54.156Z,100.00
2023-04-11T18:58:24.149Z,100.00
2023-04-11T19:00:52.477Z,100.00
2023-04-11T19:03:20.734Z,100.00
2023-04-11T19:05:49.416Z,100.00
2023-04-11T19:08:19.327Z,100.00
2023-04-11T19:10:46.355Z,100.00
2023-04-11T19:13:13.447Z,100.00
2023-04-11T19:15:41.333Z,100.00
2023-04-11T19:18:08.914Z,100.00
2023-04-11T19:20:38.421Z,100.00
2023-04-11T19:23:06.308Z,100.00
2023-04-11T19:25:34.923Z,100.00
2023-04-11T19:28:01.966Z,100.00
2023-04-11T19:30:28.826Z,100.00
2023-04-11T19:32:56.284Z,100.00
2023-04-11T19:35:23.772Z,100.00
2023-04-11T19:37:51.231Z,100.00
2023-04-11T19:40:18.206Z,100.00
2023-04-11T19:42:46.407Z,100.00
2023-04-11T19:45:13.411Z,100.00
2023-04-11T19:47:41.113Z,100.00
2023-04-11T19:50:10.901Z,100.00
2023-04-11T19:52:37.967Z,100.00
2023-04-11T19:55:05.670Z,100.00
2023-04-11T19:57:32.799Z,100.00
2023-04-11T20:00:00.982Z,100.00
2023-04-11T20:02:28.071Z,100.00
2023-04-11T20:04:55.853Z,100.00
2023-04-11T20:07:22.675Z,100.00
2023-04-11T20:09:49.485Z,100.00
2023-04-11T20:12:16.800Z,100.00
2023-04-11T20:14:43.580Z,100.00
2023-04-11T20:17:12.208Z,100.00
2023-04-11T20:19:39.812Z,100.00
2023-04-11T20:22:06.602Z,100.00
2023-04-11T20:24:33.450Z,100.00
2023-04-11T20:27:01.011Z,100.00
2023-04-11T20:29:29.192Z,100.00
2023-04-11T20:31:58.179Z,100.00
2023-04-11T20:34:26.746Z,100.00
2023-04-11T20:36:53.825Z,100.00
2023-04-11T20:39:22.696Z,100.00
2023-04-11T20:41:49.484Z,100.00
2023-04-11T20:44:16.307Z,100.00
2023-04-11T20:46:44.885Z,100.00
2023-04-11T20:49:13.410Z,100.00
2023-04-11T20:51:42.064Z,100.00
2023-04-11T20:54:08.902Z,100.00
2023-04-11T20:56:35.705Z,100.00
2023-04-11T20:59:02.810Z,100.00
2023-04-11T21:01:33.574Z,100.00
2023-04-11T21:04:01.405Z,100.00
2023-04-11T21:06:28.688Z,100.00
2023-04-11T21:08:57.675Z,100.00
2023-04-11T21:11:27.204Z,100.00
2023-04-11T21:13:54.272Z,100.00
2023-04-11T21:16:21.431Z,100.00
2023-04-11T21:18:48.619Z,100.00
2023-04-11T21:21:15.382Z,100.00
2023-04-11T21:23:43.048Z,100.00
2023-04-11T21:26:11.555Z,100.00
2023-04-11T21:28:38.764Z,100.00
2023-04-11T21:31:07.101Z,100.00
2023-04-11T21:33:34.035Z,100.00
2023-04-11T21:36:01.658Z,100.00
2023-04-11T21:38:29.709Z,100.00
2023-04-11T21:40:58.539Z,100.00
2023-04-11T21:43:27.327Z,100.00
2023-04-11T21:45:54.581Z,100.00
2023-04-11T21:48:22.042Z,100.00
2023-04-11T21:50:50.959Z,100.00
2023-04-11T21:53:17.704Z,100.00
2023-04-11T21:55:45.546Z,100.00
2023-04-11T21:58:25.834Z,100.00
2023-04-11T22:00:57.296Z,100.00
2023-04-11T22:03:26.738Z,100.00
2023-04-11T22:05:54.003Z,100.00
2023-04-11T22:08:21.597Z,100.00
2023-04-11T22:10:49.603Z,100.00
2023-04-11T22:13:18.827Z,100.00
2023-04-11T22:15:48.382Z,100.00
2023-04-11T22:18:16.679Z,100.00
2023-04-11T22:20:44.523Z,100.00
2023-04-11T22:23:13.490Z,100.00
2023-04-11T22:25:41.710Z,100.00
2023-04-11T22:28:09.048Z,100.00
2023-04-11T22:30:36.134Z,100.00
2023-04-11T22:33:03.480Z,100.00
2023-04-11T22:35:33.204Z,100.00
2023-04-11T22:38:00.122Z,100.00
2023-04-11T22:40:27.173Z,100.00
2023-04-11T22:42:55.172Z,100.00
2023-04-11T22:45:22.974Z,100.00
2023-04-11T22:47:50.083Z,100.00
2023-04-11T22:50:17.084Z,100.00
2023-04-11T22:52:45.512Z,100.00
2023-04-11T22:55:12.892Z,100.00
2023-04-11T22:57:40.170Z,100.00
2023-04-11T23:00:10.434Z,100.00
2023-04-11T23:02:37.579Z,100.00
2023-04-11T23:05:05.941Z,100.00
2023-04-11T23:07:33.248Z,100.00
2023-04-11T23:10:01.892Z,100.00
2023-04-11T23:12:29.169Z,100.00
2023-04-11T23:14:56.799Z,100.00
2023-04-11T23:17:24.942Z,100.00
2023-04-11T23:19:53.280Z,100.00
2023-04-11T23:22:20.262Z,100.00
2023-04-11T23:24:47.534Z,100.00
2023-04-11T23:27:16.081Z,100.00
2023-04-11T23:29:48.396Z,100.00
2023-04-11T23:32:16.723Z,100.00
2023-04-11T23:34:44.198Z,100.00
2023-04-11T23:37:13.837Z,100.00
2023-04-11T23:39:40.850Z,100.00
2023-04-11T23:42:08.719Z,100.00
2023-04-11T23:44:37.529Z,100.00
2023-04-11T23:47:05.699Z,100.00
2023-04-11T23:49:32.449Z,100.00
2023-04-11T23:51:59.715Z,100.00
2023-04-11T23:54:29.580Z,100.00
2023-04-11T23:56:57.436Z,100.00
2023-04-11T23:59:26.699Z,100.00
